createdAt,value
2018-10-11T00:01:56.647Z,95608.94
2018-10-11T00:04:25.681Z,95603.83
2018-10-11T00:06:54.675Z,95606.68
2018-10-11T00:09:23.442Z,95600.50
2018-10-11T00:11:52.274Z,95598.36
2018-10-11T00:14:21.185Z,95598.82
2018-10-11T00:16:49.928Z,95601.45
2018-10-11T00:19:18.541Z,95603.66
2018-10-11T00:21:47.304Z,95601.23
2018-10-11T00:24:16.127Z,95600.55
2018-10-11T00:26:45.180Z,95592.78
2018-10-11T00:29:14.031Z,95596.43
2018-10-11T00:31:43.058Z,95593.08
2018-10-11T00:34:12.011Z,95594.10
2018-10-11T00:36:41.048Z,95590.85
2018-10-11T00:39:10.292Z,95590.09
2018-10-11T00:41:39.054Z,95588.92
2018-10-11T00:44:07.724Z,95588.89
2018-10-11T00:46:36.462Z,95591.61
2018-10-11T00:49:05.139Z,95595.41
2018-10-11T00:51:34.152Z,95591.77
2018-10-11T00:54:03.074Z,95592.52
2018-10-11T00:56:31.762Z,95607.76
2018-10-11T00:59:00.640Z,95596.34
2018-10-11T01:01:29.758Z,95600.00
2018-10-11T01:03:58.670Z,95594.60
2018-10-11T01:06:27.418Z,95596.56
2018-10-11T01:08:56.244Z,95594.91
2018-10-11T01:11:25.103Z,95591.70
2018-10-11T01:13:54.020Z,95592.34
2018-10-11T01:16:22.863Z,95591.05
2018-10-11T01:18:51.807Z,95600.98
2018-10-11T01:21:20.741Z,95607.23
2018-10-11T01:23:49.795Z,95598.21
2018-10-11T01:26:18.366Z,95601.81
2018-10-11T01:28:47.315Z,95605.86
2018-10-11T01:31:23.070Z,95602.95
2018-10-11T01:33:52.568Z,95600.84
2018-10-11T01:36:21.659Z,95606.38
2018-10-11T01:38:52.025Z,95601.77
2018-10-11T01:41:20.798Z,95602.67
2018-10-11T01:43:49.573Z,95605.08
2018-10-11T01:46:18.454Z,95605.36
2018-10-11T01:48:47.620Z,95602.39
2018-10-11T01:51:16.369Z,95596.36
2018-10-11T01:53:45.389Z,95602.95
2018-10-11T01:56:14.546Z,95601.57
2018-10-11T01:58:43.496Z,95598.54
2018-10-11T02:01:12.827Z,95599.22
2018-10-11T02:03:41.807Z,95598.66
2018-10-11T02:06:10.783Z,95606.77
2018-10-11T02:08:39.725Z,95603.63
2018-10-11T02:11:08.829Z,95598.66
2018-10-11T02:13:37.479Z,95600.33
2018-10-11T02:16:06.220Z,95599.16
2018-10-11T02:18:35.121Z,95602.14
2018-10-11T02:21:03.927Z,95600.58
2018-10-11T02:23:32.712Z,95600.58
2018-10-11T02:26:01.633Z,95603.98
2018-10-11T02:28:30.283Z,95612.36
2018-10-11T02:30:59.256Z,95602.17
2018-10-11T02:33:28.482Z,95601.45
2018-10-11T02:35:57.735Z,95607.53
2018-10-11T02:38:26.553Z,95608.63
2018-10-11T02:40:55.391Z,95611.33
2018-10-11T02:43:24.303Z,95615.34
2018-10-11T02:45:52.942Z,95616.15
2018-10-11T02:48:21.883Z,95614.17
2018-10-11T02:50:50.850Z,95613.05
2018-10-11T02:53:19.629Z,95611.60
2018-10-11T02:55:48.804Z,95614.99
2018-10-11T02:58:28.568Z,95616.56
2018-10-11T03:00:57.510Z,95611.56
2018-10-11T03:03:29.006Z,95603.30
2018-10-11T03:06:00.552Z,95605.55
2018-10-11T03:08:29.866Z,95607.08
2018-10-11T03:10:59.007Z,95596.30
2018-10-11T03:13:27.624Z,95601.39
2018-10-11T03:15:56.360Z,95589.23
2018-10-11T03:18:25.515Z,95594.63
2018-10-11T03:20:54.240Z,95583.69
2018-10-11T03:23:22.884Z,95584.78
2018-10-11T03:25:51.791Z,95585.86
2018-10-11T03:28:20.731Z,95580.12
2018-10-11T03:30:49.685Z,95583.88
2018-10-11T03:33:18.578Z,95588.30
2018-10-11T03:35:47.411Z,95589.53
2018-10-11T03:38:16.205Z,95597.02
2018-10-11T03:40:45.000Z,95586.05
2018-10-11T03:43:13.728Z,95589.81
2018-10-11T03:45:42.314Z,95599.99
2018-10-11T03:48:11.389Z,95599.45
2018-10-11T03:50:40.312Z,95600.23
2018-10-11T03:53:09.119Z,95594.46
2018-10-11T03:55:38.295Z,95597.78
2018-10-11T03:58:06.981Z,95591.69
2018-10-11T04:00:36.322Z,95593.21
2018-10-11T04:03:05.182Z,95589.20
2018-10-11T04:05:33.964Z,95590.58
2018-10-11T04:08:03.601Z,95583.08
2018-10-11T04:10:32.306Z,95584.97
2018-10-11T04:13:01.384Z,95589.47
2018-10-11T04:15:30.170Z,95586.22
2018-10-11T04:17:59.039Z,95584.02
2018-10-11T04:20:28.103Z,95580.92
2018-10-11T04:22:57.199Z,95575.81
2018-10-11T04:25:26.700Z,95576.68
2018-10-11T04:27:55.503Z,95586.41
2018-10-11T04:30:25.106Z,95588.42
2018-10-11T04:32:54.231Z,95573.94
2018-10-11T04:35:23.155Z,95580.34
2018-10-11T04:37:51.846Z,95573.27
2018-10-11T04:40:20.675Z,95577.55
2018-10-11T04:42:49.592Z,95578.89
2018-10-11T04:45:18.250Z,95581.30
2018-10-11T04:47:47.098Z,95582.98
2018-10-11T04:50:16.164Z,95578.77
2018-10-11T04:52:44.980Z,95587.77
2018-10-11T04:55:13.933Z,95578.47
2018-10-11T04:57:42.978Z,95582.67
2018-10-11T05:00:11.728Z,95587.65
2018-10-11T05:02:40.255Z,95591.53
2018-10-11T05:05:09.595Z,95586.20
2018-10-11T05:07:38.611Z,95581.89
2018-10-11T05:10:07.429Z,95582.70
2018-10-11T05:12:36.229Z,95586.84
2018-10-11T05:15:05.145Z,95590.86
2018-10-11T05:17:34.699Z,95591.81
2018-10-11T05:20:03.533Z,95594.27
2018-10-11T05:22:32.249Z,95595.39
2018-10-11T05:25:01.184Z,95594.09
2018-10-11T05:27:30.046Z,95603.69
2018-10-11T05:29:58.975Z,95592.38
2018-10-11T05:32:28.261Z,95586.86
2018-10-11T05:34:57.075Z,95595.41
2018-10-11T05:37:25.715Z,95599.34
2018-10-11T05:39:54.623Z,95596.27
2018-10-11T05:42:23.466Z,95609.13
2018-10-11T05:44:52.785Z,95612.68
2018-10-11T05:47:21.919Z,95606.20
2018-10-11T05:49:50.993Z,95606.50
2018-10-11T05:52:19.719Z,95605.17
2018-10-11T05:54:48.810Z,95605.23
2018-10-11T05:57:17.771Z,95602.98
2018-10-11T05:59:46.723Z,95608.36
2018-10-11T06:02:15.692Z,95605.39
2018-10-11T06:04:44.963Z,95605.62
2018-10-11T06:07:13.961Z,95612.73
2018-10-11T06:09:42.740Z,95610.99
2018-10-11T06:12:11.532Z,95610.34
2018-10-11T06:14:40.487Z,95611.17
2018-10-11T06:17:09.730Z,95610.22
2018-10-11T06:19:38.692Z,95610.84
2018-10-11T06:22:07.939Z,95613.38
2018-10-11T06:24:37.045Z,95610.42
2018-10-11T06:27:06.147Z,95607.72
2018-10-11T06:29:35.539Z,95614.17
2018-10-11T06:32:04.234Z,95617.32
2018-10-11T06:34:33.387Z,95610.97
2018-10-11T06:37:03.284Z,95614.39
2018-10-11T06:39:32.062Z,95623.02
2018-10-11T06:42:00.686Z,95618.11
2018-10-11T06:44:30.011Z,95616.70
2018-10-11T06:46:59.083Z,95614.00
2018-10-11T06:49:27.895Z,95616.29
2018-10-11T06:51:57.092Z,95619.41
2018-10-11T06:54:25.950Z,95620.25
2018-10-11T06:56:55.059Z,95613.33
2018-10-11T06:59:23.883Z,95617.58
2018-10-11T07:01:52.978Z,95624.19
2018-10-11T07:04:22.058Z,95621.08
2018-10-11T07:06:51.141Z,95622.54
2018-10-11T07:09:19.852Z,95623.35
2018-10-11T07:11:48.538Z,95622.67
2018-10-11T07:14:17.248Z,95626.59
2018-10-11T07:16:46.011Z,95627.88
2018-10-11T07:19:14.629Z,95629.78
2018-10-11T07:21:43.532Z,95633.63
2018-10-11T07:24:12.198Z,95643.77
2018-10-11T07:26:40.875Z,95648.89
2018-10-11T07:29:09.858Z,95652.27
2018-10-11T07:31:38.721Z,95645.70
2018-10-11T07:34:07.639Z,95653.66
2018-10-11T07:36:36.326Z,95657.67
2018-10-11T07:39:08.157Z,95653.28
2018-10-11T07:41:37.157Z,95650.20
2018-10-11T07:44:06.442Z,95648.97
2018-10-11T07:46:35.554Z,95647.38
2018-10-11T07:49:05.952Z,95651.83
2018-10-11T07:51:34.823Z,95647.27
2018-10-11T07:54:03.865Z,95648.63
2018-10-11T07:56:34.061Z,95641.15
2018-10-11T07:59:03.005Z,95644.63
2018-10-11T08:01:32.219Z,95639.73
2018-10-11T08:04:01.507Z,95636.05
2018-10-11T08:06:30.280Z,95638.22
2018-10-11T08:08:59.129Z,95575.01
2018-10-11T08:11:28.575Z,95632.66
2018-10-11T08:13:57.253Z,95635.23
2018-10-11T08:16:26.362Z,95633.02
2018-10-11T08:18:55.971Z,95637.04
2018-10-11T08:21:24.955Z,95636.80
2018-10-11T08:23:53.883Z,95635.57
2018-10-11T08:26:23.138Z,95638.52
2018-10-11T08:28:51.840Z,95637.64
2018-10-11T08:31:20.775Z,95639.19
2018-10-11T08:33:49.816Z,95636.66
2018-10-11T08:36:18.450Z,95634.86
2018-10-11T08:38:47.263Z,95642.79
2018-10-11T08:41:16.376Z,95640.16
2018-10-11T08:43:45.312Z,95639.19
2018-10-11T08:46:14.802Z,95641.33
2018-10-11T08:48:44.109Z,95642.41
2018-10-11T08:51:12.859Z,95646.90
2018-10-11T08:53:41.813Z,95649.56
2018-10-11T08:56:10.883Z,95643.23
2018-10-11T08:58:39.866Z,95650.10
2018-10-11T09:01:08.859Z,95643.22
2018-10-11T09:03:38.081Z,95648.02
2018-10-11T09:06:06.727Z,95642.73
2018-10-11T09:08:35.321Z,95642.98
2018-10-11T09:11:04.266Z,95646.69
2018-10-11T09:13:33.098Z,95658.79
2018-10-11T09:16:02.010Z,95655.06
2018-10-11T09:18:31.318Z,95651.52
2018-10-11T09:21:00.070Z,95646.67
2018-10-11T09:23:28.931Z,95647.55
2018-10-11T09:25:58.208Z,95637.88
2018-10-11T09:28:27.165Z,95637.45
2018-10-11T09:30:56.157Z,95633.91
2018-10-11T09:33:25.573Z,95627.16
2018-10-11T09:35:54.232Z,95630.41
2018-10-11T09:38:23.004Z,95625.72
2018-10-11T09:40:51.784Z,95617.52
2018-10-11T09:43:20.725Z,95620.89
2018-10-11T09:45:49.767Z,95614.05
2018-10-11T09:48:18.938Z,95617.38
2018-10-11T09:50:47.779Z,95616.80
2018-10-11T09:53:16.855Z,95601.52
2018-10-11T09:55:46.040Z,95607.12
2018-10-11T09:58:14.970Z,95604.23
2018-10-11T10:00:49.354Z,95598.84
2018-10-11T10:03:18.519Z,95595.34
2018-10-11T10:05:47.229Z,95587.45
2018-10-11T10:08:16.124Z,95583.11
2018-10-11T10:10:44.858Z,95579.30
2018-10-11T10:13:13.741Z,95574.64
2018-10-11T10:15:42.801Z,95566.48
2018-10-11T10:18:11.854Z,95562.03
2018-10-11T10:20:40.887Z,95565.69
2018-10-11T10:23:09.654Z,95567.23
2018-10-11T10:25:38.486Z,95567.66
2018-10-11T10:28:07.363Z,95558.80
2018-10-11T10:30:41.571Z,95559.71
2018-10-11T10:33:10.758Z,95549.48
2018-10-11T10:35:39.495Z,95552.09
2018-10-11T10:38:08.356Z,95546.00
2018-10-11T10:40:37.331Z,95545.68
2018-10-11T10:43:06.036Z,95542.76
2018-10-11T10:45:34.740Z,95540.73
2018-10-11T10:48:04.709Z,95538.30
2018-10-11T10:50:33.591Z,95533.84
2018-10-11T10:53:02.370Z,95532.65
2018-10-11T10:55:31.610Z,95539.08
2018-10-11T10:58:00.543Z,95538.36
2018-10-11T11:00:29.483Z,95533.87
2018-10-11T11:02:58.502Z,95528.91
2018-10-11T11:05:27.307Z,95527.99
2018-10-11T11:07:56.050Z,95522.45
2018-10-11T11:10:25.475Z,95521.88
2018-10-11T11:12:54.653Z,95514.67
2018-10-11T11:15:23.813Z,95517.73
2018-10-11T11:17:52.488Z,95516.73
2018-10-11T11:20:21.489Z,95511.84
2018-10-11T11:22:50.427Z,95517.46
2018-10-11T11:25:19.554Z,95519.17
2018-10-11T11:27:48.336Z,95508.41
2018-10-11T11:30:17.484Z,95512.18
2018-10-11T11:32:46.218Z,95502.06
2018-10-11T11:35:15.054Z,95500.34
2018-10-11T11:37:43.728Z,95496.55
2018-10-11T11:40:12.595Z,95496.25
2018-10-11T11:42:41.503Z,95492.62
2018-10-11T11:45:10.347Z,95485.47
2018-10-11T11:47:39.362Z,95489.76
2018-10-11T11:50:08.471Z,95496.08
2018-10-11T11:52:37.591Z,95483.52
2018-10-11T11:55:06.663Z,95483.77
2018-10-11T11:57:35.603Z,95482.05
2018-10-11T12:00:04.827Z,95484.50
2018-10-11T12:02:33.549Z,95483.21
2018-10-11T12:05:02.263Z,95480.89
2018-10-11T12:07:31.940Z,95485.05
2018-10-11T12:10:00.677Z,95485.16
2018-10-11T12:13:07.286Z,95487.70
2018-10-11T12:15:36.676Z,95481.55
2018-10-11T12:18:06.486Z,95474.33
2018-10-11T12:20:36.748Z,95472.19
2018-10-11T12:23:06.730Z,95474.70
2018-10-11T12:25:35.732Z,95481.70
2018-10-11T12:28:04.726Z,95475.31
2018-10-11T12:30:34.020Z,95477.16
2018-10-11T12:33:02.791Z,95473.73
2018-10-11T12:35:31.926Z,95469.92
2018-10-11T12:38:01.313Z,95476.11
2018-10-11T12:40:30.363Z,95475.30
2018-10-11T12:42:59.359Z,95477.80
2018-10-11T12:45:28.241Z,95472.06
2018-10-11T12:47:56.978Z,95467.81
2018-10-11T12:50:25.779Z,95462.86
2018-10-11T12:52:54.741Z,95458.54
2018-10-11T12:55:23.908Z,95462.73
2018-10-11T12:57:53.159Z,95460.43
2018-10-11T13:00:22.052Z,95455.95
2018-10-11T13:02:50.987Z,95465.31
2018-10-11T13:05:19.659Z,95460.62
2018-10-11T13:07:48.760Z,95466.27
2018-10-11T13:10:17.891Z,95455.89
2018-10-11T13:12:46.767Z,95447.94
2018-10-11T13:15:16.067Z,95443.88
2018-10-11T13:17:44.920Z,95433.54
2018-10-11T13:20:13.804Z,95446.45
2018-10-11T13:22:42.702Z,95439.92
2018-10-11T13:25:11.710Z,95443.66
2018-10-11T13:27:40.730Z,95445.06
2018-10-11T13:30:10.143Z,95442.19
2018-10-11T13:32:38.801Z,95437.91
2018-10-11T13:35:08.323Z,95435.24
2018-10-11T13:37:37.000Z,95428.77
2018-10-11T13:40:05.685Z,95432.14
2018-10-11T13:42:34.436Z,95432.31
2018-10-11T13:45:03.495Z,95432.62
2018-10-11T13:47:35.294Z,95434.75
2018-10-11T13:50:01.358Z,95431.41
2018-10-11T13:52:30.160Z,95428.78
2018-10-11T13:54:59.243Z,95432.55
2018-10-11T13:57:31.125Z,95425.03
2018-10-11T13:59:56.891Z,95428.66
2018-10-11T14:02:25.553Z,95432.98
2018-10-11T14:04:54.267Z,95437.14
2018-10-11T14:07:23.193Z,95440.20
2018-10-11T14:09:52.127Z,95440.21
2018-10-11T14:12:20.981Z,95443.14
2018-10-11T14:14:49.669Z,95434.58
2018-10-11T14:17:18.607Z,95444.41
2018-10-11T14:19:47.506Z,95445.34
2018-10-11T14:22:16.578Z,95446.75
2018-10-11T14:24:45.594Z,95447.31
2018-10-11T14:27:14.500Z,95449.23
2018-10-11T14:29:43.257Z,95451.53
2018-10-11T14:32:12.061Z,95456.09
2018-10-11T14:34:40.716Z,95449.45
2018-10-11T14:37:09.846Z,95448.40
2018-10-11T14:39:38.747Z,95450.16
2018-10-11T14:42:07.879Z,95455.72
2018-10-11T14:44:36.885Z,95458.97
2018-10-11T14:47:06.016Z,95458.43
2018-10-11T14:49:34.901Z,95462.94
2018-10-11T14:52:03.937Z,95450.83
2018-10-11T14:54:35.197Z,95464.02
2018-10-11T14:57:05.471Z,95459.45
2018-10-11T14:59:34.303Z,95454.39
2018-10-11T15:02:02.961Z,95462.58
2018-10-11T15:04:32.063Z,95467.03
2018-10-11T15:07:00.882Z,95466.22
2018-10-11T15:09:29.944Z,95468.75
2018-10-11T15:11:59.181Z,95468.83
2018-10-11T15:14:28.243Z,95468.56
2018-10-11T15:16:57.910Z,95470.36
2018-10-11T15:19:26.907Z,95470.94
2018-10-11T15:21:56.040Z,95469.36
2018-10-11T15:24:24.807Z,95466.72
2018-10-11T15:26:53.863Z,95462.16
2018-10-11T15:29:22.709Z,95475.02
2018-10-11T15:31:51.479Z,95472.45
2018-10-11T15:34:20.294Z,95476.80
2018-10-11T15:36:49.347Z,95479.22
2018-10-11T15:39:18.287Z,95482.50
2018-10-11T15:41:47.319Z,95487.48
2018-10-11T15:44:16.167Z,95501.27
2018-10-11T15:46:45.038Z,95493.39
2018-10-11T15:49:13.928Z,95494.76
2018-10-11T15:51:43.076Z,95498.45
2018-10-11T15:54:12.085Z,95498.45
2018-10-11T15:56:40.826Z,95497.93
2018-10-11T15:59:09.628Z,95505.33
2018-10-11T16:01:38.357Z,95506.92
2018-10-11T16:04:07.199Z,95507.95
2018-10-11T16:06:36.078Z,95509.53
2018-10-11T16:09:06.545Z,95507.39
2018-10-11T16:11:35.416Z,95521.62
2018-10-11T16:14:04.281Z,95520.27
2018-10-11T16:16:33.681Z,95524.48
2018-10-11T16:19:02.600Z,95528.66
2018-10-11T16:21:31.751Z,95533.66
2018-10-11T16:24:00.592Z,95535.70
2018-10-11T16:26:29.598Z,95544.89
2018-10-11T16:28:58.515Z,95539.85
2018-10-11T16:31:27.304Z,95542.44
2018-10-11T16:33:56.309Z,95552.98
2018-10-11T16:36:25.455Z,95554.25
2018-10-11T16:38:54.040Z,95551.31
2018-10-11T16:41:23.412Z,95557.37
2018-10-11T16:43:52.354Z,95556.27
2018-10-11T16:46:21.170Z,95552.90
2018-10-11T16:48:49.911Z,95555.53
2018-10-11T16:51:18.724Z,95558.14
2018-10-11T16:53:47.800Z,95555.56
2018-10-11T16:56:16.598Z,95553.75
2018-10-11T16:58:45.374Z,95560.64
2018-10-11T17:01:14.102Z,95563.00
2018-10-11T17:03:43.094Z,95566.13
2018-10-11T17:06:12.067Z,95567.39
2018-10-11T17:08:41.296Z,95568.95
2018-10-11T17:11:10.344Z,95563.66
2018-10-11T17:13:39.115Z,95568.38
2018-10-11T17:16:08.036Z,95566.20
2018-10-11T17:18:36.777Z,95567.52
2018-10-11T17:21:05.866Z,95570.42
2018-10-11T17:23:34.752Z,95572.30
2018-10-11T17:26:03.462Z,95574.69
2018-10-11T17:28:32.150Z,95574.69
2018-10-11T17:31:01.174Z,95581.76
2018-10-11T17:33:30.097Z,95581.72
2018-10-11T17:35:59.167Z,95583.01
2018-10-11T17:38:27.870Z,95590.31
2018-10-11T17:40:56.842Z,95585.36
2018-10-11T17:43:25.909Z,95588.09
2018-10-11T17:45:54.711Z,95577.46
2018-10-11T17:48:24.019Z,95587.48
2018-10-11T17:50:52.892Z,95591.64
2018-10-11T17:53:21.748Z,95588.41
2018-10-11T17:55:50.978Z,95588.92
2018-10-11T17:58:19.906Z,95589.17
2018-10-11T18:00:48.803Z,95588.05
2018-10-11T18:03:18.354Z,95596.74
2018-10-11T18:05:47.386Z,95589.80
2018-10-11T18:08:16.896Z,95595.54
2018-10-11T18:10:46.060Z,95599.97
2018-10-11T18:13:15.148Z,95604.89
2018-10-11T18:15:44.194Z,95603.30
2018-10-11T18:18:13.722Z,95607.76
2018-10-11T18:20:42.583Z,95603.96
2018-10-11T18:23:11.421Z,95606.82
2018-10-11T18:25:40.099Z,95615.14
2018-10-11T18:28:08.831Z,95615.41
2018-10-11T18:30:37.492Z,95617.77
2018-10-11T18:33:06.318Z,95620.61
2018-10-11T18:35:35.400Z,95624.22
2018-10-11T18:38:04.146Z,95630.67
2018-10-11T18:40:33.039Z,95638.05
2018-10-11T18:43:01.903Z,95636.03
2018-10-11T18:45:30.819Z,95629.46
2018-10-11T18:47:59.994Z,95621.56
2018-10-11T18:50:28.835Z,95623.97
2018-10-11T18:52:57.827Z,95630.13
2018-10-11T18:55:26.498Z,95633.16
2018-10-11T18:57:55.237Z,95635.27
2018-10-11T19:00:24.006Z,95634.16
2018-10-11T19:02:53.132Z,95640.47
2018-10-11T19:05:22.176Z,95635.42
2018-10-11T19:07:50.990Z,95637.92
2018-10-11T19:10:19.840Z,95633.45
2018-10-11T19:12:48.579Z,95635.09
2018-10-11T19:15:17.459Z,95642.42
2018-10-11T19:17:46.378Z,95639.63
2018-10-11T19:20:15.279Z,95641.00
2018-10-11T19:22:44.367Z,95640.27
2018-10-11T19:25:13.102Z,95645.56
2018-10-11T19:27:41.903Z,95646.77
2018-10-11T19:30:10.633Z,95645.80
2018-10-11T19:32:39.551Z,95646.16
2018-10-11T19:35:08.651Z,95639.14
2018-10-11T19:37:37.450Z,95638.60
2018-10-11T19:40:06.249Z,95645.97
2018-10-11T19:42:35.111Z,95639.52
2018-10-11T19:45:03.958Z,95636.47
2018-10-11T19:47:33.025Z,95642.36
2018-10-11T19:50:01.940Z,95641.91
2018-10-11T19:52:30.813Z,95640.39
2018-10-11T19:54:59.572Z,95649.61
2018-10-11T19:57:28.327Z,95648.63
2018-10-11T19:59:56.961Z,95656.29
2018-10-11T20:02:25.665Z,95655.78
2018-10-11T20:04:54.635Z,95647.38
2018-10-11T20:07:23.763Z,95647.50
2018-10-11T20:09:52.799Z,95651.60
2018-10-11T20:12:21.597Z,95645.82
2018-10-11T20:14:50.942Z,95657.61
2018-10-11T20:17:19.878Z,95651.64
2018-10-11T20:19:48.684Z,95649.20
2018-10-11T20:22:17.776Z,95653.20
2018-10-11T20:24:46.627Z,95651.70
2018-10-11T20:27:15.421Z,95647.85
2018-10-11T20:29:44.154Z,95645.75
2018-10-11T20:32:13.089Z,95643.85
2018-10-11T20:34:41.918Z,95645.45
2018-10-11T20:37:10.945Z,95650.96
2018-10-11T20:39:39.548Z,95652.68
2018-10-11T20:42:08.636Z,95654.70
2018-10-11T20:44:37.532Z,95651.47
2018-10-11T20:47:06.535Z,95647.57
2018-10-11T20:49:35.167Z,95649.48
2018-10-11T20:52:04.030Z,95655.97
2018-10-11T20:54:32.985Z,95649.32
2018-10-11T20:57:01.582Z,95650.78
2018-10-11T20:59:30.283Z,95652.37
2018-10-11T21:01:59.355Z,95650.22
2018-10-11T21:04:28.144Z,95653.91
2018-10-11T21:06:57.240Z,95654.67
2018-10-11T21:09:26.265Z,95649.96
2018-10-11T21:11:55.203Z,95656.46
2018-10-11T21:14:24.274Z,95651.45
2018-10-11T21:16:53.069Z,95658.81
2018-10-11T21:19:21.819Z,95660.79
2018-10-11T21:21:50.526Z,95660.48
2018-10-11T21:24:19.659Z,95657.45
2018-10-11T21:26:48.386Z,95654.95
2018-10-11T21:29:17.068Z,95654.91
2018-10-11T21:31:46.016Z,95655.21
2018-10-11T21:34:15.116Z,95662.34
2018-10-11T21:36:43.867Z,95652.78
2018-10-11T21:39:13.551Z,95652.61
2018-10-11T21:41:42.607Z,95649.76
2018-10-11T21:44:11.515Z,95645.80
2018-10-11T21:46:40.505Z,95646.81
2018-10-11T21:49:09.532Z,95645.73
2018-10-11T21:51:38.525Z,95646.53
2018-10-11T21:54:07.258Z,95646.81
2018-10-11T21:56:35.983Z,95642.61
2018-10-11T21:59:04.939Z,95642.08
2018-10-11T22:01:33.786Z,95643.11
2018-10-11T22:04:02.586Z,95641.75
2018-10-11T22:06:31.463Z,95648.02
2018-10-11T22:09:00.203Z,95640.35
2018-10-11T22:11:28.924Z,95645.27
2018-10-11T22:13:57.866Z,95646.18
2018-10-11T22:16:26.776Z,95640.64
2018-10-11T22:18:55.564Z,95640.45
2018-10-11T22:21:24.266Z,95643.31
2018-10-11T22:23:53.543Z,95646.44
2018-10-11T22:26:22.232Z,95651.70
2018-10-11T22:28:50.878Z,95652.38
2018-10-11T22:31:19.855Z,95653.20
2018-10-11T22:33:48.806Z,95657.63
2018-10-11T22:36:17.427Z,95652.31
2018-10-11T22:38:46.306Z,95649.48
2018-10-11T22:41:15.494Z,95653.06
2018-10-11T22:43:44.669Z,95656.28
2018-10-11T22:46:13.959Z,95659.19
2018-10-11T22:48:43.328Z,95650.20
2018-10-11T22:51:12.618Z,95646.94
2018-10-11T22:53:41.780Z,95653.30
2018-10-11T22:56:10.550Z,95648.77
2018-10-11T22:58:39.655Z,95642.69
2018-10-11T23:01:08.595Z,95640.78
2018-10-11T23:03:37.582Z,95639.64
2018-10-11T23:06:06.644Z,95644.59
2018-10-11T23:08:35.889Z,95639.38
2018-10-11T23:11:04.724Z,95642.34
2018-10-11T23:13:33.527Z,95640.11
2018-10-11T23:16:02.568Z,95637.05
2018-10-11T23:18:31.571Z,95638.41
2018-10-11T23:21:00.221Z,95642.64
2018-10-11T23:23:29.028Z,95640.66
2018-10-11T23:25:57.750Z,95635.39
2018-10-11T23:28:26.570Z,95627.62
2018-10-11T23:30:55.614Z,95634.58
2018-10-11T23:33:24.566Z,95636.48
2018-10-11T23:35:53.505Z,95631.08
2018-10-11T23:38:22.531Z,95632.86
2018-10-11T23:40:51.699Z,95631.78
2018-10-11T23:43:20.544Z,95629.21
2018-10-11T23:45:49.486Z,95632.12
2018-10-11T23:48:18.289Z,95635.98
2018-10-11T23:50:47.528Z,95639.00
2018-10-11T23:53:16.282Z,95639.36
2018-10-11T23:55:45.009Z,95640.70
2018-10-11T23:58:13.842Z,95632.41
